Time;durP1;ratioP1;P1;durP2;ratioP2;P2;SDS_P1;SDS_P2;PMS_P1;PMS_P2;Temp;Humidity;BMP_temperature;BMP_pressure;BME280_temperature;BME280_humidity;BME280_pressure;Samples;Min_cycle;Max_cycle;Signal;HPM_P1;HPM_P2
2021/10/23 00:02:23;;;;;;;5.07;3.35;;;;;;;-149.78;100.00;50401.03;5056682;28;20127;-71
2021/10/23 00:04:49;;;;;;;7.15;3.20;;;;;;;-149.78;100.00;50375.63;5059125;28;20029;-71
2021/10/23 00:07:14;;;;;;;6.55;3.15;;;;;;;-149.78;100.00;50387.34;5061956;28;20032;-71
2021/10/23 00:09:40;;;;;;;6.90;3.78;;;;;;;-149.78;100.00;50377.56;5058758;28;20045;-71
2021/10/23 00:12:07;;;;;;;5.97;3.70;;;;;;;-149.78;100.00;50408.84;5071324;28;20105;-71
2021/10/23 00:14:32;;;;;;;7.32;4.40;;;;;;;-149.78;100.00;50373.66;5061707;28;20202;-71
2021/10/23 00:16:58;;;;;;;8.88;5.07;;;;;;;-149.78;100.00;50367.78;5051948;28;20124;-71
2021/10/23 00:19:24;;;;;;;12.35;6.00;;;;;;;-149.78;100.00;50381.47;5053330;28;20037;-71
2021/10/23 00:21:50;;;;;;;15.23;5.28;;;;;;;-149.78;100.00;50393.22;5054993;28;20041;-72
2021/10/23 00:24:16;;;;;;;11.30;5.63;;;;;;;-149.78;100.00;50373.66;5059574;28;20063;-71
2021/10/23 00:26:42;;;;;;;12.77;6.30;;;;;;;-149.78;100.00;50367.78;5069174;28;20028;-70
2021/10/23 00:29:07;;;;;;;14.20;6.85;;;;;;;-149.78;100.00;50385.38;5061780;28;20056;-71
2021/10/23 00:31:33;;;;;;;16.17;7.38;;;;;;;-149.78;100.00;50375.63;5048694;28;20033;-71
2021/10/23 00:33:59;;;;;;;16.15;8.43;;;;;;;-149.78;100.00;50420.59;5043396;28;20070;-70
2021/10/23 00:36:25;;;;;;;17.77;7.78;;;;;;;-149.78;100.00;50381.47;5067291;28;20056;-71
2021/10/23 00:38:50;;;;;;;15.45;7.70;;;;;;;-149.78;100.00;50375.63;5068684;28;20028;-71
2021/10/23 00:41:16;;;;;;;17.02;8.05;;;;;;;-149.78;100.00;50408.84;5061716;28;20037;-71
2021/10/23 00:43:44;;;;;;;15.73;7.63;;;;;;;-149.78;100.00;50389.31;5052286;28;20033;-71
2021/10/23 00:46:15;;;;;;;15.80;7.30;;;;;;;-149.78;100.00;50373.66;5054386;28;20490;-71
2021/10/23 00:48:41;;;;;;;18.95;8.27;;;;;;;-149.78;100.00;50424.50;5055185;28;20403;-71
2021/10/23 00:51:11;;;;;;;13.98;7.40;;;;;;;-149.78;100.00;50369.75;5052818;28;20040;-71
2021/10/23 00:53:39;;;;;;;20.53;8.57;;;;;;;-149.78;100.00;50375.63;5058014;28;20020;-71
2021/10/23 00:56:05;;;;;;;16.77;7.47;;;;;;;-149.78;100.00;50389.31;5072164;28;20037;-71
2021/10/23 00:58:31;;;;;;;17.73;8.77;;;;;;;-149.78;100.00;50358.00;5051559;28;20041;-72
2021/10/23 01:00:57;;;;;;;19.30;8.07;;;;;;;-149.78;100.00;50389.31;5066399;28;20047;-71
2021/10/23 01:03:23;;;;;;;16.92;8.40;;;;;;;-149.78;100.00;50401.03;5033647;28;20041;-70
2021/10/23 01:05:49;;;;;;;16.75;8.45;;;;;;;-149.78;100.00;50416.69;5064327;28;20066;-71
2021/10/23 01:08:14;;;;;;;14.48;7.60;;;;;;;-149.78;100.00;50389.31;5051046;28;20104;-71
2021/10/23 01:10:41;;;;;;;18.38;7.50;;;;;;;-149.78;100.00;50404.94;5052519;28;20025;-71
2021/10/23 01:13:07;;;;;;;13.38;7.38;;;;;;;-149.78;100.00;50412.78;5059325;28;20468;-71
2021/10/23 01:15:33;;;;;;;18.52;8.75;;;;;;;-149.78;100.00;50383.44;5058906;28;20047;-71
2021/10/23 01:18:02;;;;;;;17.08;6.97;;;;;;;-149.78;100.00;50395.16;5052521;28;20028;-71
2021/10/23 01:20:29;;;;;;;18.05;6.85;;;;;;;-149.78;100.00;50381.47;5079066;28;20089;-71
2021/10/23 01:22:55;;;;;;;19.45;6.35;;;;;;;-149.78;100.00;50403.00;5068237;28;20089;-71
2021/10/23 01:25:24;;;;;;;15.55;6.82;;;;;;;-149.78;100.00;50385.38;5067678;28;20040;-71
2021/10/23 01:27:54;;;;;;;11.13;5.65;;;;;;;-149.78;100.00;50397.13;5067669;28;20035;-71
2021/10/23 01:30:23;;;;;;;15.07;6.07;;;;;;;-149.78;100.00;50389.31;5071208;28;20107;-71
2021/10/23 01:32:50;;;;;;;9.80;5.28;;;;;;;-149.78;100.00;50401.03;5069837;28;20082;-71
2021/10/23 01:35:16;;;;;;;12.85;5.65;;;;;;;-149.78;100.00;50403.00;5054236;28;20115;-71
2021/10/23 01:37:47;;;;;;;14.38;5.60;;;;;;;-149.78;100.00;50401.03;5053108;28;20123;-71
2021/10/23 01:40:22;;;;;;;9.33;4.57;;;;;;;-149.78;100.00;50428.41;5063142;28;20036;-71
2021/10/23 01:42:48;;;;;;;11.02;5.18;;;;;;;-149.78;100.00;50401.03;5058256;28;20033;-71
2021/10/23 01:45:14;;;;;;;13.25;4.75;;;;;;;-149.78;100.00;50381.47;5054817;28;20035;-71
2021/10/23 01:47:41;;;;;;;11.52;5.30;;;;;;;-149.78;100.00;50408.84;5057392;28;20066;-71
2021/10/23 01:50:15;;;;;;;12.57;5.50;;;;;;;-149.78;100.00;50440.16;5069754;28;20032;-71
2021/10/23 01:52:42;;;;;;;10.65;5.72;;;;;;;-149.78;100.00;50391.25;5055059;28;20067;-70
2021/10/23 01:55:09;;;;;;;13.43;6.10;;;;;;;-149.78;100.00;50383.44;5078437;28;20059;-71
2021/10/23 01:57:35;;;;;;;15.85;6.13;;;;;;;-149.78;100.00;50401.03;5057539;28;20058;-71
2021/10/23 02:00:00;;;;;;;11.43;5.75;;;;;;;-149.78;100.00;50401.03;5061543;28;20381;-71
2021/10/23 02:02:26;;;;;;;11.95;5.95;;;;;;;-149.78;100.00;50377.56;5066304;28;20025;-71
2021/10/23 02:04:52;;;;;;;11.63;5.63;;;;;;;-149.78;100.00;50451.88;5056630;28;20120;-71
2021/10/23 02:07:18;;;;;;;14.48;5.55;;;;;;;-149.78;100.00;50401.03;5060805;28;20570;-71
2021/10/23 02:09:43;;;;;;;12.40;5.28;;;;;;;-149.78;100.00;50416.69;5060463;28;20358;-71
2021/10/23 02:12:09;;;;;;;10.90;5.30;;;;;;;-149.78;100.00;50381.47;5056231;28;20103;-72
2021/10/23 02:14:35;;;;;;;10.70;4.93;;;;;;;-149.78;100.00;50412.78;5055984;28;20055;-72
2021/10/23 02:17:00;;;;;;;9.77;4.78;;;;;;;-149.78;100.00;50385.38;5058170;28;20496;-71
2021/10/23 02:19:26;;;;;;;8.23;4.47;;;;;;;-149.78;100.00;50412.78;5060084;28;20457;-71
2021/10/23 02:21:51;;;;;;;8.35;4.20;;;;;;;-149.78;100.00;50397.13;5054269;28;20036;-71
2021/10/23 02:24:17;;;;;;;10.15;4.72;;;;;;;-149.78;100.00;50404.94;5056044;28;20029;-71
2021/10/23 02:26:42;;;;;;;8.73;4.07;;;;;;;-149.78;100.00;50412.78;5055416;28;20029;-71
2021/10/23 02:29:08;;;;;;;10.10;4.30;;;;;;;-149.78;100.00;50412.78;5075255;28;20033;-71
2021/10/23 02:31:34;;;;;;;8.50;3.63;;;;;;;-149.78;100.00;50430.38;5073204;28;20440;-71
2021/10/23 02:33:59;;;;;;;5.72;3.80;;;;;;;-149.78;100.00;50408.84;5063315;28;20400;-71
2021/10/23 02:36:25;;;;;;;11.52;4.25;;;;;;;-149.78;100.00;50399.09;5072071;28;20115;-72
2021/10/23 02:38:51;;;;;;;7.25;3.95;;;;;;;-149.78;100.00;50404.94;5062749;28;20120;-71
2021/10/23 02:41:22;;;;;;;9.15;4.00;;;;;;;-149.78;100.00;50375.63;5054175;28;20090;-71
2021/10/23 02:43:47;;;;;;;8.45;3.60;;;;;;;-149.78;100.00;50361.91;5066187;28;20064;-71
2021/10/23 02:46:13;;;;;;;9.55;4.00;;;;;;;-149.78;100.00;50408.84;5064722;28;20071;-71
2021/10/23 02:48:39;;;;;;;7.35;3.78;;;;;;;-149.78;100.00;50436.25;5055790;28;20072;-71
2021/10/23 02:51:04;;;;;;;8.60;3.50;;;;;;;-149.78;100.00;50406.91;5064324;28;20510;-71
2021/10/23 02:53:30;;;;;;;5.70;3.17;;;;;;;-149.78;100.00;50373.66;5061656;28;20090;-71
2021/10/23 02:55:56;;;;;;;8.93;3.55;;;;;;;-149.78;100.00;50385.38;5070818;28;20029;-71
2021/10/23 02:58:21;;;;;;;6.25;3.47;;;;;;;-149.78;100.00;50397.13;5055231;28;20036;-71
2021/10/23 03:00:48;;;;;;;6.75;3.42;;;;;;;-149.78;100.00;50418.63;5059473;28;20032;-71
2021/10/23 03:03:14;;;;;;;8.93;3.38;;;;;;;-149.78;100.00;50391.25;5055213;28;20041;-71
2021/10/23 03:05:40;;;;;;;7.25;3.95;;;;;;;-149.78;100.00;50381.47;5056015;28;20033;-71
2021/10/23 03:08:06;;;;;;;6.38;3.58;;;;;;;-149.78;100.00;50393.22;5061539;28;20085;-71
2021/10/23 03:10:32;;;;;;;11.90;4.22;;;;;;;-149.78;100.00;50379.53;5064978;28;20507;-71
2021/10/23 03:12:58;;;;;;;8.70;3.65;;;;;;;-149.78;100.00;50416.69;5058230;28;20032;-71
2021/10/23 03:15:24;;;;;;;11.55;3.83;;;;;;;-149.78;100.00;50361.91;5074097;28;20372;-72
2021/10/23 03:17:50;;;;;;;7.20;4.25;;;;;;;-149.78;100.00;50424.50;5068961;28;20036;-71
2021/10/23 03:20:17;;;;;;;7.32;3.90;;;;;;;-149.78;100.00;50401.03;5054714;28;20447;-71
2021/10/23 03:22:43;;;;;;;11.23;3.67;;;;;;;-149.78;100.00;50447.97;5058640;28;20333;-72
2021/10/23 03:25:11;;;;;;;6.82;3.70;;;;;;;-149.78;100.00;50418.63;5051117;28;20040;-71
2021/10/23 03:27:38;;;;;;;9.60;3.83;;;;;;;-149.78;100.00;50416.69;5056532;28;20040;-71
2021/10/23 03:30:05;;;;;;;12.50;4.38;;;;;;;-149.78;100.00;50404.94;5068939;28;20111;-71
2021/10/23 03:32:31;;;;;;;10.35;3.97;;;;;;;-149.78;100.00;50420.59;5057392;28;20064;-71
2021/10/23 03:35:00;;;;;;;6.60;4.03;;;;;;;-149.78;100.00;50373.66;5064948;28;20091;-71
2021/10/23 03:37:30;;;;;;;7.60;3.88;;;;;;;-149.78;100.00;50414.72;5060154;28;20052;-72
2021/10/23 03:39:57;;;;;;;7.55;3.95;;;;;;;-149.78;100.00;50412.78;5054893;28;20036;-71
2021/10/23 03:42:23;;;;;;;8.02;4.05;;;;;;;-149.78;100.00;50404.94;5061788;28;20035;-71
2021/10/23 03:44:48;;;;;;;8.65;4.35;;;;;;;-149.78;100.00;50432.31;5060541;28;20029;-72
2021/10/23 03:47:16;;;;;;;7.22;4.00;;;;;;;-149.78;100.00;50404.94;5055873;28;20044;-72
2021/10/23 03:49:43;;;;;;;8.98;4.30;;;;;;;-149.78;100.00;50389.31;5056661;28;20041;-71
2021/10/23 03:52:10;;;;;;;9.77;4.45;;;;;;;-149.78;100.00;50401.03;5048637;28;20368;-71
2021/10/23 03:54:37;;;;;;;8.90;4.35;;;;;;;-149.78;100.00;50393.22;5067444;28;20031;-72
2021/10/23 03:57:04;;;;;;;8.07;4.22;;;;;;;-149.78;100.00;50389.31;5073759;28;20025;-71
2021/10/23 03:59:32;;;;;;;8.52;4.40;;;;;;;-149.78;100.00;50377.56;5066209;28;20115;-71
2021/10/23 04:01:59;;;;;;;7.95;4.30;;;;;;;-149.78;100.00;50381.47;5071539;28;20040;-72
2021/10/23 04:04:25;;;;;;;10.25;4.93;;;;;;;-149.78;100.00;50385.38;5060378;28;20115;-71
2021/10/23 04:06:51;;;;;;;8.65;4.35;;;;;;;-149.78;100.00;50404.94;5053624;28;20124;-71
2021/10/23 04:09:19;;;;;;;8.07;3.92;;;;;;;-149.78;100.00;50383.44;5067108;28;20029;-71
2021/10/23 04:11:46;;;;;;;9.50;4.97;;;;;;;-149.78;100.00;50404.94;5066557;28;20024;-71
2021/10/23 04:14:12;;;;;;;10.25;5.00;;;;;;;-149.78;100.00;50381.47;5065039;28;20049;-72
2021/10/23 04:16:40;;;;;;;8.93;4.72;;;;;;;-149.78;100.00;50418.63;5051443;28;20024;-71
2021/10/23 04:19:06;;;;;;;8.40;4.85;;;;;;;-149.78;100.00;50383.44;5045272;28;20087;-71
2021/10/23 04:21:31;;;;;;;7.90;4.60;;;;;;;-149.78;100.00;50428.41;5068503;28;20024;-71
2021/10/23 04:23:58;;;;;;;10.15;4.78;;;;;;;-149.78;100.00;50389.31;5060883;28;20062;-71
2021/10/23 04:26:24;;;;;;;8.05;4.72;;;;;;;-149.78;100.00;50416.69;5069043;28;20028;-71
2021/10/23 04:28:51;;;;;;;8.13;4.60;;;;;;;-149.78;100.00;50346.28;5033338;28;20036;-71
2021/10/23 04:31:17;;;;;;;9.77;5.28;;;;;;;-149.78;100.00;50432.31;5065017;28;20045;-71
2021/10/23 04:33:43;;;;;;;7.57;4.80;;;;;;;-149.78;100.00;50401.03;5066166;28;20131;-71
2021/10/23 04:36:10;;;;;;;8.27;4.47;;;;;;;-149.78;100.00;50438.19;5057827;28;20060;-71
2021/10/23 04:38:36;;;;;;;8.70;4.47;;;;;;;-149.78;100.00;50420.59;5054184;28;20047;-71
2021/10/23 04:41:02;;;;;;;12.60;4.28;;;;;;;-149.78;100.00;50377.56;5054619;28;20025;-71
2021/10/23 04:43:27;;;;;;;7.30;4.18;;;;;;;-149.78;100.00;50393.22;5065269;28;20043;-72
2021/10/23 04:45:53;;;;;;;8.55;4.15;;;;;;;-149.78;100.00;50393.22;5040993;28;20041;-72
2021/10/23 04:48:19;;;;;;;8.88;3.85;;;;;;;-149.78;100.00;50373.66;5070069;28;20048;-72
2021/10/23 04:50:44;;;;;;;6.65;4.50;;;;;;;-149.78;100.00;50408.84;5055416;28;20037;-72
2021/10/23 04:53:10;;;;;;;9.90;4.30;;;;;;;-149.78;100.00;50354.09;5053404;28;20044;-72
2021/10/23 04:55:36;;;;;;;8.85;4.22;;;;;;;-149.78;100.00;50408.84;5064398;28;20167;-72
2021/10/23 04:58:02;;;;;;;8.27;4.15;;;;;;;-149.78;100.00;50358.00;5060740;28;20107;-72
2021/10/23 05:00:28;;;;;;;6.85;3.97;;;;;;;-149.78;100.00;50365.84;5084143;28;20170;-72
2021/10/23 05:02:53;;;;;;;9.05;3.97;;;;;;;-149.78;100.00;50408.84;5062582;28;20041;-72
2021/10/23 05:05:20;;;;;;;8.90;3.80;;;;;;;-149.78;100.00;50412.78;5055874;28;20033;-72
2021/10/23 05:07:46;;;;;;;8.27;3.65;;;;;;;-149.78;100.00;50401.03;5070207;28;20068;-72
2021/10/23 05:10:13;;;;;;;8.27;3.80;;;;;;;-149.78;100.00;50377.56;5059769;28;20029;-71
2021/10/23 05:12:39;;;;;;;7.47;4.40;;;;;;;-149.78;100.00;50408.84;5060219;28;20360;-71
2021/10/23 05:15:06;;;;;;;8.95;3.80;;;;;;;-149.78;100.00;50432.31;5059065;28;20057;-71
2021/10/23 05:17:31;;;;;;;7.95;3.45;;;;;;;-149.78;100.00;50397.13;5055784;28;20116;-72
2021/10/23 05:19:57;;;;;;;7.38;3.28;;;;;;;-149.78;100.00;50436.25;5059830;28;20106;-72
2021/10/23 05:22:23;;;;;;;5.57;3.35;;;;;;;-149.78;100.00;50426.47;5061372;28;20067;-72
2021/10/23 05:24:48;;;;;;;6.97;3.00;;;;;;;-149.78;100.00;50391.25;5057197;28;20083;-71
2021/10/23 05:27:14;;;;;;;6.70;3.33;;;;;;;-149.78;100.00;50373.66;5053597;28;20036;-72
2021/10/23 05:29:40;;;;;;;4.78;2.90;;;;;;;-149.78;100.00;50381.47;5053634;28;20040;-72
2021/10/23 05:32:06;;;;;;;4.97;2.63;;;;;;;-149.78;100.00;50385.38;5056462;28;20484;-72
2021/10/23 05:34:31;;;;;;;7.22;3.10;;;;;;;-149.78;100.00;50373.66;5058438;28;20091;-72
2021/10/23 05:36:57;;;;;;;8.52;3.33;;;;;;;-149.78;100.00;50377.56;5053327;28;20040;-72
2021/10/23 05:39:23;;;;;;;3.78;2.50;;;;;;;-149.78;100.00;50383.44;5056171;28;20029;-72
2021/10/23 05:41:48;;;;;;;5.57;2.97;;;;;;;-149.78;100.00;50404.94;5059783;28;20384;-72
2021/10/23 05:44:15;;;;;;;5.82;2.65;;;;;;;-149.78;100.00;50393.22;5066670;28;20036;-72
2021/10/23 05:46:41;;;;;;;4.82;2.67;;;;;;;-149.78;100.00;50389.31;5056867;28;20487;-73
2021/10/23 05:49:07;;;;;;;5.00;2.60;;;;;;;-149.78;100.00;50361.91;5062373;28;20040;-72
2021/10/23 05:51:33;;;;;;;6.00;3.05;;;;;;;-149.78;100.00;50385.38;5060281;28;20111;-73
2021/10/23 05:53:59;;;;;;;4.57;2.08;;;;;;;-149.78;100.00;50412.78;5065943;28;20113;-72
2021/10/23 05:56:25;;;;;;;5.95;2.30;;;;;;;-149.78;100.00;50414.72;5061539;28;20089;-75
2021/10/23 05:58:53;;;;;;;4.60;1.92;;;;;;;-149.78;100.00;50393.22;5064271;28;20040;-75
2021/10/23 06:01:19;;;;;;;2.30;1.63;;;;;;;-149.78;100.00;50361.91;5047280;28;20036;-74
2021/10/23 06:03:44;;;;;;;4.03;2.20;;;;;;;-149.78;100.00;50393.22;5056847;28;20468;-75
2021/10/23 06:06:10;;;;;;;3.20;2.00;;;;;;;-149.78;100.00;50412.78;5056598;28;20572;-75
2021/10/23 06:08:36;;;;;;;2.30;1.70;;;;;;;-149.78;100.00;50408.84;5063956;28;20043;-73
2021/10/23 06:11:03;;;;;;;6.47;2.08;;;;;;;-149.78;100.00;50406.91;5062783;28;20044;-74
2021/10/23 06:13:32;;;;;;;4.25;2.08;;;;;;;-149.78;100.00;50412.78;5068338;28;20025;-73
2021/10/23 06:15:57;;;;;;;4.40;1.73;;;;;;;-149.78;100.00;50397.13;5062648;28;20491;-73
2021/10/23 06:18:23;;;;;;;2.90;1.70;;;;;;;-149.78;100.00;50404.94;5063957;28;20029;-74
2021/10/23 06:20:50;;;;;;;5.43;1.83;;;;;;;-149.78;100.00;50420.59;5057930;28;20043;-73
2021/10/23 06:23:16;;;;;;;2.78;1.50;;;;;;;-149.78;100.00;50401.03;5064296;28;20423;-73
2021/10/23 06:25:41;;;;;;;3.35;1.52;;;;;;;-149.78;100.00;50412.78;5062782;28;20037;-73
2021/10/23 06:28:07;;;;;;;3.10;1.55;;;;;;;-149.78;100.00;50408.84;5065572;28;20039;-74
2021/10/23 06:30:32;;;;;;;6.85;1.58;;;;;;;-149.78;100.00;50424.50;5061152;28;20120;-73
2021/10/23 06:32:58;;;;;;;3.53;1.60;;;;;;;-149.78;100.00;50404.94;5059449;28;20136;-73
2021/10/23 06:35:26;;;;;;;3.60;1.48;;;;;;;-149.78;100.00;50432.31;5065362;28;20025;-74
2021/10/23 06:37:52;;;;;;;3.08;1.30;;;;;;;-149.78;100.00;50428.41;5052244;28;20072;-73
2021/10/23 06:40:18;;;;;;;2.60;1.40;;;;;;;-149.78;100.00;50401.03;5064790;28;20053;-72
2021/10/23 06:42:44;;;;;;;2.97;1.42;;;;;;;-149.78;100.00;50379.53;5062401;28;20500;-73
2021/10/23 06:45:12;;;;;;;2.28;1.17;;;;;;;-149.78;100.00;50404.94;5047979;28;20029;-74
2021/10/23 06:47:38;;;;;;;3.58;1.20;;;;;;;-149.78;100.00;50389.31;5060912;28;20135;-73
2021/10/23 06:50:06;;;;;;;2.72;1.15;;;;;;;-149.78;100.00;50403.00;5069524;28;20170;-73
2021/10/23 06:52:32;;;;;;;1.75;0.95;;;;;;;-149.78;100.00;50373.66;5050690;28;20465;-73
2021/10/23 06:54:58;;;;;;;6.00;1.02;;;;;;;-149.78;100.00;50377.56;5066010;28;20048;-73
2021/10/23 06:57:24;;;;;;;7.20;1.20;;;;;;;-149.78;100.00;50369.75;5068701;28;20464;-74
2021/10/23 06:59:50;;;;;;;2.35;1.05;;;;;;;-149.78;100.00;50404.94;5059412;28;20033;-70
2021/10/23 07:02:16;;;;;;;3.10;1.00;;;;;;;-149.78;100.00;50403.00;5067059;28;20114;-72
2021/10/23 07:04:41;;;;;;;3.22;1.30;;;;;;;-149.78;100.00;50428.41;5065885;28;20124;-72
2021/10/23 07:07:07;;;;;;;3.67;1.35;;;;;;;-149.78;100.00;50412.78;5068806;28;20174;-72
2021/10/23 07:09:33;;;;;;;2.85;1.55;;;;;;;-149.78;100.00;50401.03;5064300;28;20041;-71
2021/10/23 07:12:00;;;;;;;1.33;0.90;;;;;;;-149.78;100.00;50393.22;5060742;28;20032;-71
2021/10/23 07:14:26;;;;;;;1.02;0.82;;;;;;;-149.78;100.00;50393.22;5062525;28;20033;-72
2021/10/23 07:16:51;;;;;;;1.83;0.90;;;;;;;-149.78;100.00;50377.56;5048120;28;20032;-71
2021/10/23 07:19:18;;;;;;;3.40;1.45;;;;;;;-149.78;100.00;50381.47;5068083;28;20052;-73
2021/10/23 07:21:43;;;;;;;3.30;1.10;;;;;;;-149.78;100.00;50408.84;5065931;28;20029;-73
2021/10/23 07:24:09;;;;;;;2.25;1.13;;;;;;;-149.78;100.00;50403.00;5066506;28;20037;-72
2021/10/23 07:26:35;;;;;;;1.85;1.13;;;;;;;-149.78;100.00;50385.38;5059666;28;20045;-72
2021/10/23 07:29:05;;;;;;;3.65;1.33;;;;;;;-149.78;100.00;50401.03;5062217;28;20403;-73
2021/10/23 07:31:31;;;;;;;2.97;1.40;;;;;;;-149.78;100.00;50406.91;5062081;28;20471;-71
2021/10/23 07:33:57;;;;;;;3.55;1.40;;;;;;;-149.78;100.00;50381.47;5045706;28;20057;-73
2021/10/23 07:36:24;;;;;;;3.47;1.60;;;;;;;-149.78;100.00;50389.31;5065160;28;20123;-72
2021/10/23 07:38:50;;;;;;;3.17;1.40;;;;;;;-149.78;100.00;50401.03;5043994;28;20490;-71
2021/10/23 07:41:17;;;;;;;3.65;1.27;;;;;;;-149.78;100.00;50383.44;5064567;28;20028;-72
2021/10/23 07:43:42;;;;;;;2.10;1.10;;;;;;;-149.78;100.00;50428.41;5067333;28;20037;-69
2021/10/23 07:46:08;;;;;;;3.33;1.30;;;;;;;-149.78;100.00;50389.31;5065833;28;20522;-72
2021/10/23 07:48:35;;;;;;;3.08;1.17;;;;;;;-149.78;100.00;50408.84;5067004;28;20448;-72
2021/10/23 07:51:04;;;;;;;2.25;1.20;;;;;;;-149.78;100.00;50395.16;5061022;28;20043;-72
2021/10/23 07:53:30;;;;;;;3.28;1.30;;;;;;;-149.78;100.00;50420.59;5064747;28;20028;-71
2021/10/23 07:55:57;;;;;;;1.45;1.20;;;;;;;-149.78;100.00;50375.63;5065366;28;20082;-71
2021/10/23 07:58:22;;;;;;;4.60;1.38;;;;;;;-149.78;100.00;50432.31;5066503;28;20031;-71
2021/10/23 08:00:51;;;;;;;4.05;1.25;;;;;;;-149.78;100.00;50397.13;5063247;28;20040;-72
2021/10/23 08:03:17;;;;;;;3.72;1.73;;;;;;;-149.78;100.00;50399.09;5068069;28;20064;-72
2021/10/23 08:05:43;;;;;;;2.95;1.48;;;;;;;-149.78;100.00;50397.13;5067691;28;20059;-72
2021/10/23 08:08:09;;;;;;;3.50;1.60;;;;;;;-149.78;100.00;50404.94;5058542;28;20032;-72
2021/10/23 08:10:35;;;;;;;2.65;1.10;;;;;;;-149.78;100.00;50359.97;5064239;28;20032;-72
2021/10/23 08:13:04;;;;;;;2.35;1.30;;;;;;;-149.78;100.00;50389.31;5061212;28;20123;-72
2021/10/23 08:15:30;;;;;;;3.10;1.50;;;;;;;-149.78;100.00;50369.75;5062266;28;20366;-72
2021/10/23 08:17:57;;;;;;;1.90;1.30;;;;;;;-149.78;100.00;50350.19;5057772;28;20039;-72
2021/10/23 08:20:23;;;;;;;2.13;1.40;;;;;;;-149.78;100.00;50361.91;5065705;28;20033;-71
2021/10/23 08:22:48;;;;;;;4.70;1.33;;;;;;;-149.78;100.00;50385.38;5068032;28;20044;-71
2021/10/23 08:25:14;;;;;;;2.05;1.20;;;;;;;-149.78;100.00;50369.75;5064302;28;20484;-72
2021/10/23 08:27:44;;;;;;;1.90;1.30;;;;;;;-149.78;100.00;50342.38;5062938;28;20365;-71
2021/10/23 08:30:15;;;;;;;6.93;1.40;;;;;;;-149.78;100.00;50389.31;5067611;28;20060;-71
2021/10/23 08:32:42;;;;;;;2.15;1.45;;;;;;;-149.78;100.00;50381.47;5063579;28;20054;-72
2021/10/23 08:35:18;;;;;;;1.60;1.35;;;;;;;-149.78;100.00;50373.66;5068097;28;20025;-72
2021/10/23 08:37:45;;;;;;;1.80;1.02;;;;;;;-149.78;100.00;50379.53;5060086;28;20029;-72
2021/10/23 08:40:12;;;;;;;2.45;1.10;;;;;;;-149.78;100.00;50381.47;5066523;28;20029;-71
2021/10/23 08:42:38;;;;;;;2.95;1.10;;;;;;;-149.78;100.00;50350.19;5060998;28;20055;-72
2021/10/23 08:45:07;;;;;;;1.67;1.23;;;;;;;-149.78;100.00;50322.81;5054789;28;20045;-73
2021/10/23 08:47:36;;;;;;;2.35;1.27;;;;;;;-149.78;100.00;50391.25;5061248;28;20900;-72
2021/10/23 08:50:04;;;;;;;5.53;1.20;;;;;;;-149.78;100.00;50354.09;5048566;28;20037;-72
2021/10/23 08:52:29;;;;;;;1.95;1.27;;;;;;;-149.78;100.00;50354.09;5068597;28;20064;-72
2021/10/23 08:54:55;;;;;;;2.90;1.20;;;;;;;-149.78;100.00;50354.09;5063392;28;20098;-72
2021/10/23 08:57:25;;;;;;;4.45;1.60;;;;;;;-149.78;100.00;50338.44;5058539;28;20024;-71
2021/10/23 09:00:01;;;;;;;3.10;1.65;;;;;;;-149.78;100.00;50334.53;5064917;28;20036;-70
2021/10/23 09:02:27;;;;;;;5.82;1.65;;;;;;;-149.78;100.00;50352.16;5065812;28;20369;-70
2021/10/23 09:04:56;;;;;;;3.45;1.50;;;;;;;-149.78;100.00;50303.25;5060748;28;20122;-71
2021/10/23 09:07:23;;;;;;;2.70;1.35;;;;;;;-149.78;100.00;50248.50;5055846;28;20056;-71
2021/10/23 09:09:58;;;;;;;4.20;1.83;;;;;;;-149.78;98.97;50271.97;5060248;28;20033;-71
2021/10/23 09:12:24;;;;;;;3.75;1.40;;;;;;;-149.78;100.00;50279.78;5063274;28;20112;-71
2021/10/23 09:15:05;;;;;;;2.40;1.67;;;;;;;-149.78;100.00;50283.69;5065895;28;20086;-71
2021/10/23 09:17:34;;;;;;;2.92;1.35;;;;;;;-149.78;100.00;50291.50;5064753;28;20065;-71
2021/10/23 09:20:09;;;;;;;2.53;1.52;;;;;;;-149.78;100.00;50299.34;5060863;28;20032;-71
2021/10/23 09:22:38;;;;;;;3.53;1.60;;;;;;;-149.78;100.00;50303.25;5064048;28;20040;-71
2021/10/23 09:25:18;;;;;;;2.08;1.60;;;;;;;-149.78;97.29;50268.03;5069035;28;20498;-70
2021/10/23 09:28:15;;;;;;;2.72;1.33;;;;;;;-149.78;79.52;50252.41;5064826;28;20025;-71
2021/10/23 09:30:49;;;;;;;2.72;1.50;;;;;;;-149.78;76.42;50244.59;5054195;28;20341;-71
2021/10/23 09:33:21;;;;;;;5.18;1.95;;;;;;;-149.78;82.15;50264.13;5063436;28;20111;-71
2021/10/23 09:35:48;;;;;;;;;;;;;;;-149.78;77.56;50221.13;5065814;28;20380;-71
2021/10/23 09:38:16;;;;;;;3.22;1.70;;;;;;;-149.78;73.29;50236.75;5064956;28;19986;-71
2021/10/23 09:40:46;;;;;;;2.92;1.50;;;;;;;-149.78;79.29;50256.31;5062796;28;20412;-71
2021/10/23 09:43:19;;;;;;;4.50;1.90;;;;;;;-149.78;89.02;50256.31;5049441;28;20041;-71
2021/10/23 09:45:57;;;;;;;5.43;2.55;;;;;;;-149.78;91.27;50322.81;5068734;28;20032;-71
2021/10/23 09:48:30;;;;;;;2.78;1.88;;;;;;;-149.78;92.55;50289.56;5063564;28;20040;-72
2021/10/23 09:51:23;;;;;;;7.25;2.92;;;;;;;-149.78;92.53;50264.13;5068124;28;20127;-71
2021/10/23 09:54:00;;;;;;;7.90;3.42;;;;;;;-149.78;88.81;50275.88;5064581;28;20389;-71
2021/10/23 09:56:36;;;;;;;9.93;3.47;;;;;;;-149.78;74.52;50221.13;5063276;28;20389;-72
2021/10/23 09:59:09;;;;;;;8.27;3.30;;;;;;;-149.78;67.68;50217.19;5062662;28;20039;-72
2021/10/23 10:01:43;;;;;;;15.07;4.50;;;;;;;-149.78;66.14;50221.13;5067900;28;20031;-72
2021/10/23 10:04:13;;;;;;;21.42;5.38;;;;;;;-149.78;69.67;50217.19;5066421;28;20036;-72
2021/10/23 10:06:44;;;;;;;4.97;2.30;;;;;;;-149.78;75.84;50236.75;5061929;28;20032;-72
2021/10/23 10:09:10;;;;;;;6.30;2.63;;;;;;;-149.78;78.04;50240.66;5067157;28;20071;-72
2021/10/23 10:11:37;;;;;;;20.70;4.60;;;;;;;-149.78;85.57;50232.84;5063170;28;20033;-72
2021/10/23 10:14:06;;;;;;;7.80;2.55;;;;;;;-149.78;98.09;50279.78;5065972;28;20106;-71
2021/10/23 10:16:32;;;;;;;15.57;4.78;;;;;;;-149.78;100.00;50287.59;5063435;28;20504;-72
2021/10/23 10:18:58;;;;;;;28.10;5.63;;;;;;;-149.78;100.00;50271.97;5064025;28;20086;-71
2021/10/23 10:21:24;;;;;;;14.65;4.45;;;;;;;-149.78;100.00;50303.25;5056717;28;20136;-72
2021/10/23 10:23:54;;;;;;;10.45;4.03;;;;;;;-149.78;100.00;50228.94;5067932;28;20041;-72
2021/10/23 10:26:37;;;;;;;12.95;4.40;;;;;;;-149.78;96.39;50256.31;5063541;28;20066;-72
2021/10/23 10:29:06;;;;;;;5.65;2.40;;;;;;;-149.78;99.13;50275.88;5065990;28;20044;-72
2021/10/23 10:42:51;;;;;;;5.72;2.08;;;;;;;-149.78;95.10;50225.03;5084045;28;20037;-72
2021/10/23 10:45:42;;;;;;;2.50;1.80;;;;;;;-149.78;87.93;50236.75;5070465;28;20108;-71
2021/10/23 10:48:13;;;;;;;3.35;2.10;;;;;;;-149.78;94.12;50268.03;5067913;28;20090;-71
2021/10/23 10:50:41;;;;;;;7.03;3.08;;;;;;;-149.78;100.00;50275.88;5071582;28;20029;-72
2021/10/23 10:53:16;;;;;;;6.40;2.15;;;;;;;-149.78;100.00;50291.50;5072720;28;20101;-71
2021/10/23 10:55:45;;;;;;;2.50;2.17;;;;;;;-149.78;100.00;50291.50;5087332;28;20411;-71
2021/10/23 10:58:12;;;;;;;4.78;2.50;;;;;;;-149.78;100.00;50309.13;5066497;28;20060;-71
2021/10/23 11:01:00;;;;;;;4.85;2.40;;;;;;;-149.78;100.00;50291.50;5067657;28;20029;-71
2021/10/23 11:03:37;;;;;;;4.25;2.20;;;;;;;-149.78;100.00;50283.69;5068990;28;20055;-72
2021/10/23 11:06:30;;;;;;;4.70;2.08;;;;;;;-149.78;100.00;50275.88;5071843;28;20376;-71
2021/10/23 11:11:43;;;;;;;5.25;1.90;;;;;;;-149.78;100.00;50303.25;5068027;28;20025;-71
2021/10/23 11:14:22;;;;;;;4.28;2.03;;;;;;;-149.78;100.00;50305.22;5067920;28;20025;-72
2021/10/23 11:16:58;;;;;;;5.00;1.65;;;;;;;-149.78;100.00;50295.44;5065504;28;20396;-71
2021/10/23 11:19:30;;;;;;;5.05;1.92;;;;;;;-149.78;100.00;50299.34;5066544;28;20025;-71
2021/10/23 11:21:59;;;;;;;6.63;1.95;;;;;;;-149.78;100.00;50275.88;5058567;28;20025;-71
2021/10/23 11:24:44;;;;;;;2.80;1.83;;;;;;;-149.78;100.00;50344.31;5068264;28;20124;-71
2021/10/23 11:27:30;;;;;;;1.95;1.55;;;;;;;-149.78;100.00;50303.25;5069917;28;20041;-72